Time;durP1;ratioP1;P1;durP2;ratioP2;P2;SDS_P1;SDS_P2;PMS_P1;PMS_P2;Temp;Humidity;BMP_temperature;BMP_pressure;BME280_temperature;BME280_humidity;BME280_pressure;Samples;Min_cycle;Max_cycle;Signal;HPM_P1;HPM_P2
2023/12/07 00:02:16;;;;;;;14.00;7.95;;;-0.80;99.90;;;;;;4979590;28;20042;-76
2023/12/07 00:04:44;;;;;;;16.13;9.75;;;-0.90;99.90;;;;;;4984074;28;20140;-75
2023/12/07 00:07:10;;;;;;;13.93;8.52;;;-0.90;99.90;;;;;;4975679;28;20101;-75
2023/12/07 00:09:36;;;;;;;19.50;9.68;;;-0.90;99.90;;;;;;4963297;28;20077;-75
2023/12/07 00:12:02;;;;;;;79.18;46.22;;;-0.90;99.90;;;;;;4976388;28;20033;-75
2023/12/07 00:14:28;;;;;;;20.27;9.65;;;-0.90;99.90;;;;;;4982775;28;20045;-75
2023/12/07 00:16:54;;;;;;;23.38;9.38;;;-0.90;99.90;;;;;;4980983;28;20081;-75
2023/12/07 00:19:19;;;;;;;21.02;8.82;;;-1.00;99.90;;;;;;4982816;28;20057;-76
2023/12/07 00:21:46;;;;;;;17.85;9.80;;;-1.00;99.90;;;;;;4981439;28;20088;-76
2023/12/07 00:24:12;;;;;;;17.92;9.35;;;-1.00;99.90;;;;;;4999138;28;20060;-76
2023/12/07 00:26:38;;;;;;;17.85;10.00;;;-1.00;99.90;;;;;;4980999;28;20480;-76
2023/12/07 00:29:03;;;;;;;19.23;10.18;;;-1.00;99.90;;;;;;4981387;28;20499;-76
2023/12/07 00:31:29;;;;;;;67.32;47.05;;;-1.00;99.90;;;;;;4981299;28;20125;-75
2023/12/07 00:33:55;;;;;;;20.85;11.13;;;-1.00;99.90;;;;;;4980638;28;20077;-75
2023/12/07 00:36:21;;;;;;;21.17;10.63;;;-1.00;99.90;;;;;;4980865;28;20037;-75
2023/12/07 00:38:47;;;;;;;22.40;11.05;;;-1.00;99.90;;;;;;4981468;28;20489;-75
2023/12/07 00:41:13;;;;;;;20.77;10.45;;;-1.00;99.90;;;;;;4977639;28;20038;-76
2023/12/07 00:43:48;;;;;;;72.78;53.38;;;-1.00;99.90;;;;;;4962906;28;20556;-75
2023/12/07 00:46:14;;;;;;;22.90;11.27;;;-1.10;99.90;;;;;;4981131;28;20081;-76
2023/12/07 00:48:40;;;;;;;19.52;11.35;;;-1.00;99.90;;;;;;4981008;28;20492;-75
2023/12/07 00:51:06;;;;;;;24.17;12.50;;;-1.10;99.90;;;;;;4973652;28;20129;-75
2023/12/07 00:53:32;;;;;;;29.63;13.00;;;-1.10;99.90;;;;;;4962461;28;20046;-75
2023/12/07 00:55:58;;;;;;;21.20;12.27;;;-1.00;99.90;;;;;;4981126;28;20397;-75
2023/12/07 00:58:24;;;;;;;25.02;12.32;;;-0.90;99.90;;;;;;4981613;28;20049;-75
2023/12/07 01:00:49;;;;;;;24.90;12.88;;;-1.00;99.90;;;;;;4976056;28;20038;-76
2023/12/07 01:03:16;;;;;;;28.92;13.02;;;-0.90;99.90;;;;;;4962065;28;20046;-75
2023/12/07 01:05:45;;;;;;;89.63;59.38;;;-0.90;99.90;;;;;;4974167;28;20419;-75
2023/12/07 01:08:11;;;;;;;93.47;62.13;;;-0.90;99.90;;;;;;4981085;28;20073;-75
2023/12/07 01:10:45;;;;;;;31.15;14.23;;;-0.80;99.90;;;;;;4984827;28;20030;-75
2023/12/07 01:13:11;;;;;;;26.65;12.65;;;-0.90;99.90;;;;;;4981843;28;20033;-75
2023/12/07 01:15:36;;;;;;;26.75;13.20;;;-0.80;99.90;;;;;;4982316;28;20508;-75
2023/12/07 01:18:07;;;;;;;29.38;12.98;;;-0.90;99.90;;;;;;4982374;28;20041;-75
2023/12/07 01:20:33;;;;;;;25.77;12.13;;;-0.90;99.90;;;;;;4980618;28;20429;-75
2023/12/07 01:22:59;;;;;;;29.05;13.35;;;-0.90;99.90;;;;;;4981962;28;20041;-75
2023/12/07 01:25:25;;;;;;;34.65;13.90;;;-0.90;99.90;;;;;;4983357;28;20038;-76
2023/12/07 01:27:51;;;;;;;101.35;58.20;;;-0.90;99.90;;;;;;4981982;28;20041;-76
2023/12/07 01:30:17;;;;;;;29.52;12.93;;;-0.90;99.90;;;;;;4997793;28;20089;-76
2023/12/07 01:32:46;;;;;;;31.73;13.20;;;-0.90;99.90;;;;;;4981679;28;20037;-76
2023/12/07 01:35:16;;;;;;;27.02;11.35;;;-1.00;99.90;;;;;;4980220;28;20042;-76
2023/12/07 01:37:51;;;;;;;29.15;14.10;;;-1.00;99.90;;;;;;4982910;28;20404;-76
2023/12/07 01:40:20;;;;;;;26.17;12.05;;;-0.90;99.90;;;;;;4981912;28;20041;-76
2023/12/07 01:43:01;;;;;;;24.25;12.00;;;-1.00;99.90;;;;;;4979138;28;20508;-76
2023/12/07 01:45:33;;;;;;;27.92;12.18;;;-1.00;99.90;;;;;;4978326;28;20117;-76
2023/12/07 01:48:01;;;;;;;30.60;12.30;;;-1.00;99.90;;;;;;4982569;28;20044;-76
2023/12/07 01:50:44;;;;;;;118.35;59.53;;;-1.00;99.90;;;;;;4981862;28;20038;-76
2023/12/07 01:53:13;;;;;;;34.75;13.55;;;-1.00;99.90;;;;;;4961124;28;20108;-76
2023/12/07 01:55:47;;;;;;;31.35;13.10;;;-0.90;99.90;;;;;;4960384;28;20050;-76
2023/12/07 01:58:46;;;;;;;29.73;12.13;;;-0.80;99.90;;;;;;4961276;28;20409;-76
2023/12/07 02:01:12;;;;;;;26.10;10.65;;;-0.90;99.90;;;;;;4968465;28;20053;-76
2023/12/07 02:03:41;;;;;;;122.13;62.33;;;-0.80;99.90;;;;;;4980087;28;20046;-76
2023/12/07 02:06:13;;;;;;;27.67;12.18;;;-0.90;99.90;;;;;;4979759;28;20404;-76
2023/12/07 02:08:41;;;;;;;25.23;13.27;;;-1.00;99.90;;;;;;4980236;28;20034;-75
2023/12/07 02:11:10;;;;;;;29.15;12.75;;;-1.00;99.90;;;;;;4973947;28;20506;-76
2023/12/07 02:13:40;;;;;;;26.48;12.65;;;-1.00;99.90;;;;;;4968378;28;20042;-76
2023/12/07 02:16:51;;;;;;;33.25;11.95;;;-1.00;99.90;;;;;;4979889;28;20041;-76
2023/12/07 02:19:33;;;;;;;30.45;12.90;;;-1.00;99.90;;;;;;4934128;28;20074;-76
2023/12/07 02:22:14;;;;;;;100.68;58.42;;;-1.10;99.90;;;;;;4971933;28;20120;-76
2023/12/07 02:25:04;;;;;;;27.63;12.90;;;-1.00;99.90;;;;;;4979190;28;20412;-75
2023/12/07 02:27:38;;;;;;;30.58;12.77;;;-1.10;99.90;;;;;;4961381;28;20129;-75
2023/12/07 02:30:07;;;;;;;23.70;11.15;;;-1.10;99.90;;;;;;4982073;28;20053;-76
2023/12/07 02:32:33;;;;;;;27.85;12.90;;;-1.20;99.90;;;;;;4963891;28;20042;-76
2023/12/07 02:35:00;;;;;;;26.35;12.93;;;-1.20;99.90;;;;;;4960659;28;20100;-76
2023/12/07 02:37:37;;;;;;;25.35;11.13;;;-1.30;99.90;;;;;;4963419;28;20493;-76
2023/12/07 02:40:05;;;;;;;28.63;12.63;;;-1.20;99.90;;;;;;4975329;28;20046;-76
2023/12/07 02:42:33;;;;;;;27.48;13.75;;;-1.20;99.90;;;;;;4964615;28;20077;-76
2023/12/07 02:45:05;;;;;;;26.52;12.93;;;-1.20;99.90;;;;;;4964007;28;20035;-76
2023/12/07 02:47:31;;;;;;;32.95;13.90;;;-1.20;99.90;;;;;;4976915;28;20072;-76
2023/12/07 02:49:59;;;;;;;29.45;13.27;;;-1.20;99.90;;;;;;4967756;28;20042;-76
2023/12/07 02:52:25;;;;;;;29.45;14.77;;;-1.20;99.90;;;;;;4965407;28;20066;-76
2023/12/07 02:54:54;;;;;;;27.40;12.75;;;-1.30;99.90;;;;;;4964373;28;20070;-75
2023/12/07 02:57:22;;;;;;;99.50;61.17;;;-1.20;99.90;;;;;;4967202;28;20038;-75
2023/12/07 02:59:52;;;;;;;116.68;68.50;;;-1.20;99.90;;;;;;4980282;28;20042;-75
2023/12/07 03:02:22;;;;;;;30.77;14.70;;;-1.10;99.90;;;;;;4961155;28;20038;-76
2023/12/07 03:04:51;;;;;;;27.90;13.60;;;-1.20;99.90;;;;;;4999487;28;20050;-76
2023/12/07 03:07:23;;;;;;;27.55;13.50;;;-1.20;99.90;;;;;;4983660;28;20034;-76
2023/12/07 03:09:52;;;;;;;24.20;11.93;;;-1.20;99.90;;;;;;4982949;28;20436;-76
2023/12/07 03:12:19;;;;;;;29.08;13.70;;;-1.20;99.90;;;;;;4998812;28;20036;-76
2023/12/07 03:14:46;;;;;;;28.63;12.77;;;-1.20;99.90;;;;;;4982489;28;20385;-76
2023/12/07 03:17:15;;;;;;;29.52;14.48;;;-1.20;99.90;;;;;;4982357;28;20037;-76
2023/12/07 03:19:44;;;;;;;26.67;13.77;;;-1.30;99.90;;;;;;4983195;28;20104;-76
2023/12/07 03:22:10;;;;;;;27.02;13.20;;;-1.30;99.90;;;;;;4982588;28;20566;-76
2023/12/07 03:24:47;;;;;;;29.42;13.70;;;-1.30;99.90;;;;;;4967386;28;20042;-75
2023/12/07 03:27:16;;;;;;;32.70;15.30;;;-1.30;99.90;;;;;;4963615;28;20030;-75
2023/12/07 03:29:42;;;;;;;29.55;13.30;;;-1.40;99.90;;;;;;4963329;28;20460;-75
2023/12/07 03:32:09;;;;;;;25.85;13.15;;;-1.40;99.90;;;;;;4963070;28;20042;-76
2023/12/07 03:34:36;;;;;;;29.00;12.82;;;-1.40;99.90;;;;;;4977011;28;20068;-75
2023/12/07 03:37:03;;;;;;;24.23;14.25;;;-1.40;99.90;;;;;;4981132;28;20520;-75
2023/12/07 03:39:33;;;;;;;27.65;14.30;;;-1.50;99.90;;;;;;4998647;28;20226;-75
2023/12/07 03:42:02;;;;;;;31.23;14.10;;;-1.50;99.90;;;;;;4981801;28;20199;-75
2023/12/07 03:44:43;;;;;;;25.50;12.70;;;-1.50;99.90;;;;;;4998441;28;20058;-75
2023/12/07 03:47:09;;;;;;;22.20;13.15;;;-1.50;99.90;;;;;;4975675;28;20496;-75
2023/12/07 03:49:35;;;;;;;23.70;12.80;;;-1.60;99.90;;;;;;4982741;28;20038;-75
2023/12/07 03:52:02;;;;;;;22.73;12.75;;;-1.60;99.90;;;;;;4982830;28;20057;-75
2023/12/07 03:54:28;;;;;;;20.88;10.68;;;-1.60;99.90;;;;;;4983169;28;20172;-75
2023/12/07 03:56:54;;;;;;;21.20;11.07;;;-1.60;99.90;;;;;;4982771;28;20593;-75
2023/12/07 03:59:21;;;;;;;27.17;13.18;;;-1.60;99.90;;;;;;4983171;28;20652;-75
2023/12/07 04:01:48;;;;;;;26.40;13.52;;;-1.60;99.90;;;;;;4981127;28;20045;-75
2023/12/07 04:04:14;;;;;;;29.95;13.65;;;-1.60;99.90;;;;;;4982580;28;20484;-75
2023/12/07 04:06:40;;;;;;;24.88;13.30;;;-1.60;99.90;;;;;;4983665;28;20201;-75
2023/12/07 04:09:07;;;;;;;30.83;14.55;;;-1.50;99.90;;;;;;4982953;28;20098;-75
2023/12/07 04:11:33;;;;;;;30.88;14.25;;;-1.50;99.90;;;;;;4980526;28;20053;-75
2023/12/07 04:13:59;;;;;;;21.25;12.82;;;-1.50;99.90;;;;;;4967318;28;20042;-75
2023/12/07 04:16:30;;;;;;;26.80;14.05;;;-1.50;99.90;;;;;;4987899;28;20444;-75
2023/12/07 04:18:57;;;;;;;26.27;13.35;;;-1.50;99.90;;;;;;4982690;28;20077;-75
2023/12/07 04:21:25;;;;;;;27.75;13.70;;;-1.40;99.90;;;;;;4982801;28;20080;-75
2023/12/07 04:23:52;;;;;;;25.40;13.40;;;-1.40;99.90;;;;;;4983015;28;20038;-75
2023/12/07 04:26:18;;;;;;;29.02;15.18;;;-1.40;99.90;;;;;;4982625;28;20042;-75
2023/12/07 04:28:47;;;;;;;85.05;63.55;;;-1.40;99.90;;;;;;4982565;28;20092;-75
2023/12/07 04:31:14;;;;;;;35.65;16.50;;;-1.30;99.90;;;;;;4982296;28;20048;-75
2023/12/07 04:33:44;;;;;;;27.67;14.10;;;-1.30;99.90;;;;;;4966634;28;20042;-75
2023/12/07 04:36:10;;;;;;;30.95;16.85;;;-1.30;99.90;;;;;;4982757;28;20046;-75
2023/12/07 04:38:37;;;;;;;28.13;14.25;;;-1.20;99.90;;;;;;4983068;28;20042;-75
2023/12/07 04:41:04;;;;;;;29.48;15.65;;;-1.30;99.90;;;;;;4982248;28;20443;-75
2023/12/07 04:43:30;;;;;;;120.95;79.57;;;-1.30;99.90;;;;;;4970497;28;20053;-75
2023/12/07 04:45:56;;;;;;;43.50;19.17;;;-1.20;99.90;;;;;;4989762;28;20069;-75
2023/12/07 04:48:22;;;;;;;36.90;16.67;;;-1.20;99.90;;;;;;4983018;28;20077;-75
2023/12/07 04:50:50;;;;;;;32.17;17.17;;;-1.20;99.90;;;;;;4981189;28;20455;-75
2023/12/07 04:53:17;;;;;;;131.25;86.35;;;-1.10;99.90;;;;;;4968175;28;20050;-75
2023/12/07 04:55:50;;;;;;;39.17;18.42;;;-1.10;99.90;;;;;;4971799;28;20038;-75
2023/12/07 04:58:18;;;;;;;38.20;16.25;;;-1.00;99.90;;;;;;4981614;28;20077;-75
2023/12/07 05:00:44;;;;;;;40.65;16.63;;;-0.90;99.90;;;;;;4966737;28;20049;-75
2023/12/07 05:03:11;;;;;;;36.42;17.50;;;-0.90;99.90;;;;;;4973830;28;20045;-75
2023/12/07 05:05:37;;;;;;;37.58;17.05;;;-0.90;99.90;;;;;;4980345;28;20038;-75
2023/12/07 05:08:03;;;;;;;160.13;93.60;;;-0.90;99.90;;;;;;4980750;28;20038;-75
2023/12/07 05:10:31;;;;;;;48.08;19.52;;;-0.80;99.90;;;;;;4983716;28;20855;-75
2023/12/07 05:12:57;;;;;;;48.20;19.40;;;-0.80;99.90;;;;;;4976337;28;20046;-75
2023/12/07 05:15:24;;;;;;;45.00;18.63;;;-0.80;99.90;;;;;;4980187;28;20038;-75
2023/12/07 05:17:50;;;;;;;141.68;85.50;;;-0.80;99.90;;;;;;4980617;28;20039;-75
2023/12/07 05:20:16;;;;;;;166.32;96.25;;;-0.80;99.90;;;;;;4973421;28;20448;-75
2023/12/07 05:22:41;;;;;;;38.38;16.73;;;-0.80;99.90;;;;;;4970774;23;20404;-79
2023/12/07 05:25:07;;;;;;;38.30;17.92;;;-0.70;99.90;;;;;;4949240;28;20166;-79
2023/12/07 05:27:32;;;;;;;32.25;15.27;;;-0.70;99.90;;;;;;4956890;28;20391;-79
2023/12/07 05:29:58;;;;;;;38.83;18.02;;;-0.80;99.90;;;;;;4972897;28;20046;-79
2023/12/07 05:32:23;;;;;;;36.40;16.92;;;-0.80;99.90;;;;;;4948525;28;20042;-79
2023/12/07 05:34:50;;;;;;;28.52;15.68;;;-0.80;99.90;;;;;;4988300;28;20412;-80
2023/12/07 05:37:16;;;;;;;36.28;16.02;;;-0.90;99.90;;;;;;4939865;28;20485;-79
2023/12/07 05:39:41;;;;;;;130.73;78.53;;;-0.80;99.90;;;;;;4946230;28;20042;-79
2023/12/07 05:42:07;;;;;;;34.70;16.08;;;-0.80;99.90;;;;;;4950756;28;20092;-79
2023/12/07 05:44:32;;;;;;;35.35;15.43;;;-0.80;99.90;;;;;;4988260;28;20051;-79
2023/12/07 05:46:58;;;;;;;28.27;14.20;;;-0.90;99.90;;;;;;4940232;28;20623;-79
2023/12/07 05:49:23;;;;;;;120.40;72.60;;;-0.80;99.90;;;;;;4940026;28;20049;-79
2023/12/07 05:51:49;;;;;;;30.30;14.70;;;-0.80;99.90;;;;;;4940025;28;20035;-80
2023/12/07 05:54:15;;;;;;;29.20;13.68;;;-0.80;99.90;;;;;;4987203;28;20039;-80
2023/12/07 05:56:40;;;;;;;27.27;12.60;;;-0.80;99.90;;;;;;4937994;28;20042;-80
2023/12/07 05:59:06;;;;;;;26.35;13.30;;;-0.90;99.90;;;;;;4972307;28;20069;-80
2023/12/07 06:01:32;;;;;;;33.72;14.60;;;-0.90;99.90;;;;;;4955742;28;20409;-80
2023/12/07 06:03:58;;;;;;;26.58;13.50;;;-0.90;99.90;;;;;;4987706;28;20553;-79
2023/12/07 06:06:24;;;;;;;109.35;65.57;;;-0.90;99.90;;;;;;4939986;28;20062;-80
2023/12/07 06:08:49;;;;;;;28.77;15.20;;;-0.90;99.90;;;;;;4939163;28;20066;-80
2023/12/07 06:11:15;;;;;;;28.05;14.27;;;-0.90;99.90;;;;;;4955545;28;20402;-80
2023/12/07 06:13:41;;;;;;;28.45;13.43;;;-0.90;99.90;;;;;;4938808;28;20382;-83
2023/12/07 06:16:06;;;;;;;36.13;14.75;;;-1.00;99.90;;;;;;4970380;28;20043;-80
2023/12/07 06:18:32;;;;;;;34.47;14.13;;;-1.00;99.90;;;;;;4959782;28;20041;-82
2023/12/07 06:20:58;;;;;;;109.60;64.40;;;-1.00;99.90;;;;;;4952573;28;20046;-83
2023/12/07 06:23:24;;;;;;;30.65;14.23;;;-1.00;99.90;;;;;;4952827;28;20043;-82
2023/12/07 06:25:49;;;;;;;26.95;13.40;;;-1.00;99.90;;;;;;4955899;28;20050;-83
2023/12/07 06:28:15;;;;;;;29.23;14.98;;;-1.10;99.90;;;;;;4964686;28;20460;-81
2023/12/07 06:30:40;;;;;;;24.05;12.55;;;-1.10;99.90;;;;;;4966949;28;20433;-80
2023/12/07 06:33:06;;;;;;;27.95;14.65;;;-1.20;99.90;;;;;;4937386;28;20409;-80
2023/12/07 06:35:32;;;;;;;23.60;12.45;;;-1.20;99.90;;;;;;4960517;28;20070;-80
2023/12/07 06:37:57;;;;;;;24.58;12.85;;;-1.30;99.90;;;;;;4951962;28;20047;-83
2023/12/07 06:40:23;;;;;;;28.98;14.27;;;-1.30;99.90;;;;;;4941242;28;20134;-80
2023/12/07 06:42:48;;;;;;;29.55;12.48;;;-1.40;99.90;;;;;;4946675;28;20071;-80
2023/12/07 06:45:14;;;;;;;23.58;12.07;;;-1.40;99.90;;;;;;4954626;28;20482;-80
2023/12/07 06:47:43;;;;;;;25.52;13.63;;;-1.40;99.90;;;;;;4955609;28;20064;-80
2023/12/07 06:50:12;;;;;;;24.85;11.80;;;-1.50;99.90;;;;;;4971729;28;20408;-80
2023/12/07 06:52:39;;;;;;;22.58;13.23;;;-1.50;99.90;;;;;;4953358;28;20093;-80
2023/12/07 06:55:05;;;;;;;30.50;14.10;;;-1.50;99.90;;;;;;4952812;28;20051;-80
2023/12/07 06:57:31;;;;;;;28.60;13.10;;;-1.60;99.90;;;;;;4938292;28;20070;-82
2023/12/07 06:59:57;;;;;;;26.75;13.57;;;-1.60;99.90;;;;;;4946049;28;20070;-84
2023/12/07 07:02:23;;;;;;;26.25;13.13;;;-1.60;99.90;;;;;;4987117;28;20039;-82
2023/12/07 07:04:49;;;;;;;24.38;11.80;;;-1.50;99.90;;;;;;4952901;28;20090;-81
2023/12/07 07:07:15;;;;;;;22.17;13.65;;;-1.60;99.90;;;;;;4939217;28;20073;-82
2023/12/07 07:09:40;;;;;;;27.90;13.27;;;-1.70;99.90;;;;;;4986524;28;20070;-82
2023/12/07 07:12:06;;;;;;;29.13;14.48;;;-1.70;99.90;;;;;;4947183;28;20434;-79
2023/12/07 07:14:32;;;;;;;27.08;14.73;;;-1.70;99.90;;;;;;4942942;28;20114;-80
2023/12/07 07:16:58;;;;;;;27.95;14.32;;;-1.70;99.90;;;;;;4952255;28;20050;-81
2023/12/07 07:19:23;;;;;;;31.50;15.68;;;-1.70;99.90;;;;;;4958387;28;20043;-81
2023/12/07 07:21:49;;;;;;;33.70;15.77;;;-1.60;99.90;;;;;;4939461;28;20475;-82
2023/12/07 07:24:15;;;;;;;36.20;17.55;;;-1.70;99.90;;;;;;4938915;28;20134;-81
2023/12/07 07:26:40;;;;;;;28.63;16.63;;;-1.70;99.90;;;;;;4958327;28;20074;-82
2023/12/07 07:29:06;;;;;;;35.88;16.88;;;-1.70;99.90;;;;;;4991484;28;20034;-82
2023/12/07 07:31:32;;;;;;;34.88;17.45;;;-1.60;99.90;;;;;;4991702;28;20126;-81
2023/12/07 07:33:57;;;;;;;33.20;15.93;;;-1.60;99.90;;;;;;4990841;28;20105;-82
2023/12/07 07:36:23;;;;;;;38.42;17.95;;;-1.60;99.90;;;;;;4974964;28;20497;-82
2023/12/07 07:38:48;;;;;;;31.13;16.95;;;-1.60;99.90;;;;;;4942786;28;20105;-81
2023/12/07 07:41:14;;;;;;;31.55;17.15;;;-1.60;99.90;;;;;;4990941;28;20141;-82
2023/12/07 07:43:40;;;;;;;36.03;18.50;;;-1.60;99.90;;;;;;4990348;28;20055;-82
2023/12/07 07:46:06;;;;;;;33.83;17.50;;;-1.60;99.90;;;;;;4990990;28;20043;-82
2023/12/07 07:48:32;;;;;;;38.25;18.30;;;-1.60;99.90;;;;;;4942624;28;20034;-81
2023/12/07 07:50:58;;;;;;;31.98;17.58;;;-1.60;99.90;;;;;;4990815;28;20088;-82
2023/12/07 07:53:24;;;;;;;41.63;18.98;;;-1.60;99.90;;;;;;4990504;28;20050;-81
2023/12/07 07:55:49;;;;;;;36.30;17.83;;;-1.60;99.90;;;;;;4990774;28;20046;-81
2023/12/07 07:58:15;;;;;;;37.10;18.15;;;-1.60;99.90;;;;;;4942542;28;20458;-80
2023/12/07 08:00:40;;;;;;;35.80;18.33;;;-1.60;99.90;;;;;;4990477;28;20042;-82
2023/12/07 08:03:06;;;;;;;30.58;17.33;;;-1.70;99.90;;;;;;4973966;28;20090;-81
2023/12/07 08:05:33;;;;;;;129.15;90.85;;;-1.60;99.90;;;;;;4992686;28;20046;-81
2023/12/07 08:07:58;;;;;;;38.17;19.48;;;-1.60;99.90;;;;;;4990704;28;20445;-81
2023/12/07 08:10:24;;;;;;;38.58;20.13;;;-1.60;99.90;;;;;;4990423;28;20085;-81
2023/12/07 08:12:50;;;;;;;33.70;16.98;;;-1.60;99.90;;;;;;4990343;28;20118;-80
2023/12/07 08:15:15;;;;;;;38.22;18.63;;;-1.50;99.90;;;;;;4990014;28;20053;-80
2023/12/07 08:17:41;;;;;;;40.25;19.20;;;-1.60;99.90;;;;;;4942040;28;20039;-81
2023/12/07 08:20:10;;;;;;;42.60;19.13;;;-1.50;99.90;;;;;;4941890;28;20049;-81
2023/12/07 08:22:40;;;;;;;39.75;18.90;;;-1.50;99.90;;;;;;4989947;28;20465;-81
2023/12/07 08:25:07;;;;;;;47.78;21.80;;;-1.50;99.90;;;;;;4957690;28;20043;-81
2023/12/07 08:27:33;;;;;;;48.60;22.02;;;-1.40;99.90;;;;;;4990265;28;20038;-81
2023/12/07 08:29:59;;;;;;;42.30;22.02;;;-1.40;99.90;;;;;;4990073;28;20045;-81
2023/12/07 08:32:25;;;;;;;47.92;21.50;;;-1.40;99.90;;;;;;4941785;28;20074;-81
2023/12/07 08:34:54;;;;;;;44.58;21.23;;;-1.30;99.90;;;;;;4989917;28;20078;-81
2023/12/07 08:37:19;;;;;;;43.47;19.45;;;-1.30;99.90;;;;;;4956645;28;20042;-81
2023/12/07 08:39:45;;;;;;;42.28;19.13;;;-1.30;99.90;;;;;;4941636;28;20049;-81
2023/12/07 08:42:11;;;;;;;55.30;22.58;;;-1.20;99.90;;;;;;4989571;28;20517;-81
2023/12/07 08:44:37;;;;;;;77.47;23.55;;;-1.10;99.90;;;;;;4989502;28;20386;-81
2023/12/07 08:47:03;;;;;;;101.88;24.92;;;-1.00;99.90;;;;;;4989721;28;20038;-81
2023/12/07 08:49:29;;;;;;;95.47;22.58;;;-1.00;99.90;;;;;;4941408;28;20045;-80
2023/12/07 08:51:55;;;;;;;463.15;133.38;;;-0.90;99.90;;;;;;4973411;28;20386;-81
2023/12/07 08:54:21;;;;;;;146.23;25.73;;;-0.90;99.90;;;;;;4956929;28;20102;-81
2023/12/07 08:56:47;;;;;;;147.98;23.83;;;-0.80;99.90;;;;;;4989354;28;20050;-81
2023/12/07 08:59:12;;;;;;;109.95;22.75;;;-0.80;99.90;;;;;;4973285;28;20038;-81
2023/12/07 09:01:38;;;;;;;513.95;133.93;;;-0.70;99.90;;;;;;4989391;28;20043;-82
2023/12/07 09:04:03;;;;;;;164.57;27.80;;;-0.70;99.90;;;;;;4989037;28;20047;-81
2023/12/07 09:06:29;;;;;;;113.93;22.88;;;-0.70;99.90;;;;;;4989542;28;20093;-81
2023/12/07 09:08:55;;;;;;;87.97;21.58;;;-0.70;99.90;;;;;;4989453;28;20045;-82
2023/12/07 09:11:21;;;;;;;71.15;22.17;;;-0.60;99.90;;;;;;4989423;28;20074;-82
2023/12/07 09:13:46;;;;;;;295.92;115.32;;;-0.60;99.90;;;;;;4956933;28;20444;-82
2023/12/07 09:16:12;;;;;;;403.13;126.80;;;-0.50;99.90;;;;;;4941242;28;20035;-81
2023/12/07 09:18:38;;;;;;;105.38;19.67;;;-0.50;99.90;;;;;;4940935;28;20047;-82
2023/12/07 09:21:04;;;;;;;80.00;20.42;;;-0.40;99.90;;;;;;4972929;28;20130;-81
2023/12/07 09:23:29;;;;;;;71.60;18.80;;;-0.50;99.90;;;;;;4956621;28;20122;-81
2023/12/07 09:25:55;;;;;;;355.85;125.10;;;-0.40;99.90;;;;;;4988957;28;20035;-82
2023/12/07 09:28:21;;;;;;;119.18;25.52;;;-0.30;99.90;;;;;;4972829;28;20205;-81
2023/12/07 09:30:46;;;;;;;98.38;23.70;;;-0.30;99.90;;;;;;4989034;28;20462;-82
2023/12/07 09:33:12;;;;;;;108.80;23.40;;;-0.30;99.90;;;;;;4940619;28;20039;-81
2023/12/07 09:35:39;;;;;;;461.00;131.45;;;-0.20;99.90;;;;;;4940694;28;20039;-81
2023/12/07 09:38:04;;;;;;;418.33;129.63;;;-0.20;99.90;;;;;;4988866;28;20038;-81
2023/12/07 09:40:30;;;;;;;95.40;20.77;;;-0.10;99.90;;;;;;4988823;28;20093;-81
2023/12/07 09:42:56;;;;;;;74.57;18.77;;;-0.10;99.90;;;;;;4940324;28;20038;-81
2023/12/07 09:45:22;;;;;;;98.28;19.55;;;-0.10;99.90;;;;;;4988602;28;20497;-82
2023/12/07 09:47:52;;;;;;;480.23;129.00;;;-0.10;99.90;;;;;;4988425;28;20035;-82
2023/12/07 09:50:21;;;;;;;87.88;19.95;;;-0.10;99.90;;;;;;4940300;28;20042;-81
2023/12/07 09:52:48;;;;;;;81.97;17.92;;;0.00;99.90;;;;;;4956435;28;20050;-82
2023/12/07 09:55:16;;;;;;;518.53;134.00;;;0.00;99.90;;;;;;4956374;28;20420;-82
2023/12/07 09:57:42;;;;;;;114.68;20.10;;;0.00;99.90;;;;;;4956419;28;20050;-82
2023/12/07 10:00:10;;;;;;;384.98;105.30;;;0.00;99.90;;;;;;4988777;28;20045;-82
2023/12/07 10:02:38;;;;;;;97.07;20.50;;;0.10;99.90;;;;;;4940217;28;20137;-81
2023/12/07 10:05:13;;;;;;;131.13;21.33;;;0.10;99.90;;;;;;4972081;28;20583;-82
2023/12/07 10:07:41;;;;;;;363.95;108.68;;;0.10;99.90;;;;;;4956038;28;20039;-82
2023/12/07 10:10:07;;;;;;;471.10;129.07;;;0.10;99.90;;;;;;4940188;28;20039;-82
2023/12/07 10:12:34;;;;;;;81.53;20.73;;;0.20;99.90;;;;;;4940224;28;20030;-82
2023/12/07 10:15:03;;;;;;;105.55;21.75;;;0.20;99.90;;;;;;4988069;28;20042;-82
2023/12/07 10:17:56;;;;;;;114.25;20.58;;;0.20;99.90;;;;;;4972131;28;20043;-83
2023/12/07 10:20:24;;;;;;;498.83;132.98;;;0.20;99.90;;;;;;4956003;28;20141;-82
2023/12/07 10:23:11;;;;;;;101.88;20.02;;;0.20;99.90;;;;;;4971996;28;20043;-81
2023/12/07 10:25:37;;;;;;;547.78;142.00;;;0.20;99.90;;;;;;4955962;28;20053;-83
2023/12/07 10:28:11;;;;;;;99.22;21.35;;;0.20;99.90;;;;;;4955963;28;20046;-82
2023/12/07 10:30:37;;;;;;;445.00;133.85;;;0.20;99.90;;;;;;4972126;28;20531;-82
2023/12/07 10:33:07;;;;;;;146.00;26.25;;;0.20;99.90;;;;;;4955526;28;20043;-83
2023/12/07 10:35:33;;;;;;;495.15;137.15;;;0.30;99.90;;;;;;4988137;28;20049;-82
2023/12/07 10:37:59;;;;;;;503.50;140.05;;;0.30;99.90;;;;;;4988074;28;20050;-82
2023/12/07 10:40:25;;;;;;;519.10;140.82;;;0.30;99.90;;;;;;4939840;28;20035;-82
2023/12/07 10:42:56;;;;;;;488.75;140.02;;;0.30;99.90;;;;;;4955601;28;20094;-83
2023/12/07 10:45:24;;;;;;;109.95;22.60;;;0.30;99.90;;;;;;4971801;28;20054;-83
2023/12/07 10:47:53;;;;;;;515.90;145.35;;;0.30;99.90;;;;;;4939940;28;20499;-82
2023/12/07 10:50:23;;;;;;;582.70;160.55;;;0.30;99.90;;;;;;4939665;28;20077;-82
2023/12/07 10:52:57;;;;;;;120.90;24.00;;;0.30;99.90;;;;;;4939777;28;20035;-82
2023/12/07 10:55:34;;;;;;;559.90;150.20;;;0.30;99.90;;;;;;4971950;28;20501;-83
2023/12/07 10:58:01;;;;;;;453.58;133.88;;;0.30;99.90;;;;;;4987876;28;20097;-81
2023/12/07 11:00:27;;;;;;;645.88;170.82;;;0.30;99.90;;;;;;4973258;28;20055;-83
2023/12/07 11:02:53;;;;;;;127.90;24.20;;;0.40;99.90;;;;;;4991876;28;20131;-83
2023/12/07 11:05:20;;;;;;;583.13;157.32;;;0.30;99.90;;;;;;4975310;28;20433;-82
2023/12/07 11:08:06;;;;;;;432.95;131.15;;;0.30;99.90;;;;;;4991691;28;20049;-83
2023/12/07 11:10:43;;;;;;;80.93;20.45;;;0.40;99.90;;;;;;4991739;28;20038;-82
2023/12/07 11:13:17;;;;;;;57.65;18.58;;;0.40;99.90;;;;;;4991178;28;20054;-83
2023/12/07 11:15:43;;;;;;;517.13;146.50;;;0.40;99.90;;;;;;4959197;28;20034;-82
2023/12/07 11:18:12;;;;;;;577.67;151.45;;;0.40;99.90;;;;;;4991563;28;20042;-82
2023/12/07 11:20:47;;;;;;;95.38;22.05;;;0.40;99.90;;;;;;4943229;28;20042;-83
2023/12/07 11:23:20;;;;;;;512.03;147.50;;;0.40;99.90;;;;;;5013516;23;20038;-77
2023/12/07 11:25:50;;;;;;;99.97;22.02;;;0.40;99.90;;;;;;4942829;28;20509;-77
2023/12/07 11:28:24;;;;;;;536.30;141.57;;;0.40;99.90;;;;;;4942865;28;20039;-77
2023/12/07 11:31:00;;;;;;;542.92;148.60;;;0.40;99.90;;;;;;4942734;28;20046;-78
2023/12/07 11:33:29;;;;;;;91.80;20.40;;;0.50;99.90;;;;;;4942636;28;20042;-77
2023/12/07 11:36:08;;;;;;;493.42;133.30;;;0.50;99.90;;;;;;4942469;28;20058;-78
2023/12/07 11:38:36;;;;;;;657.63;167.27;;;0.50;99.90;;;;;;4942882;28;20508;-77
2023/12/07 11:41:02;;;;;;;603.33;149.23;;;0.50;99.90;;;;;;4947475;28;20047;-77
2023/12/07 11:43:40;;;;;;;603.33;150.55;;;0.50;99.90;;;;;;4946160;28;20513;-78
2023/12/07 11:46:12;;;;;;;509.38;142.93;;;0.50;99.90;;;;;;4944935;28;20042;-77
2023/12/07 11:48:52;;;;;;;150.43;25.48;;;0.50;99.90;;;;;;4946194;28;20082;-77
2023/12/07 11:51:34;;;;;;;68.22;19.42;;;0.60;99.90;;;;;;4944778;28;20039;-78
2023/12/07 11:54:32;;;;;;;118.28;21.23;;;0.50;99.90;;;;;;4944614;28;20388;-77
2023/12/07 11:57:04;;;;;;;68.85;19.70;;;0.50;99.90;;;;;;4944654;28;20471;-78
2023/12/07 11:59:36;;;;;;;91.95;21.27;;;0.60;99.90;;;;;;4944647;28;20070;-77
2023/12/07 12:02:13;;;;;;;446.65;127.60;;;0.60;99.90;;;;;;4943707;28;20078;-76
2023/12/07 12:04:47;;;;;;;451.00;125.45;;;0.60;99.90;;;;;;4944158;28;20058;-78
2023/12/07 12:07:29;;;;;;;500.85;136.20;;;0.60;99.90;;;;;;4944575;28;20047;-78
2023/12/07 12:10:05;;;;;;;607.13;143.18;;;0.70;99.90;;;;;;4944300;28;20039;-77
2023/12/07 12:12:40;;;;;;;638.75;160.18;;;0.80;99.90;;;;;;4944577;28;20041;-78
2023/12/07 12:15:08;;;;;;;441.40;129.45;;;0.80;99.90;;;;;;4943748;28;20501;-78
2023/12/07 12:17:53;;;;;;;99.10;23.13;;;0.80;99.90;;;;;;4943770;28;20390;-78
2023/12/07 12:20:24;;;;;;;70.75;19.45;;;0.90;99.90;;;;;;4943763;28;20086;-77
2023/12/07 12:23:02;;;;;;;528.20;134.98;;;0.80;99.90;;;;;;4943918;28;20042;-78
2023/12/07 12:25:33;;;;;;;370.83;111.28;;;0.80;99.90;;;;;;4943602;28;20038;-77
2023/12/07 12:28:03;;;;;;;443.48;117.97;;;0.80;99.90;;;;;;4943241;28;20046;-78
2023/12/07 12:30:35;;;;;;;451.88;124.32;;;0.80;99.90;;;;;;4943229;28;20409;-78
2023/12/07 12:33:01;;;;;;;269.10;98.63;;;0.90;99.90;;;;;;4942798;28;20516;-77